createdAt,value
2023-01-31T00:00:19.173Z,8.99
2023-01-31T00:02:45.879Z,8.93
2023-01-31T00:05:12.794Z,8.91
2023-01-31T00:07:39.608Z,8.80
2023-01-31T00:10:06.390Z,8.74
2023-01-31T00:12:33.117Z,8.81
2023-01-31T00:15:00.261Z,8.78
2023-01-31T00:17:26.845Z,8.72
2023-01-31T00:19:53.496Z,8.75
2023-01-31T00:22:25.848Z,8.81
2023-01-31T00:24:52.511Z,8.81
2023-01-31T00:27:19.750Z,8.83
2023-01-31T00:29:46.365Z,8.56
2023-01-31T00:32:15.383Z,8.47
2023-01-31T00:34:42.094Z,8.44
2023-01-31T00:37:08.782Z,8.48
2023-01-31T00:39:35.746Z,8.49
2023-01-31T00:42:02.627Z,8.64
2023-01-31T00:44:29.689Z,8.54
2023-01-31T00:46:57.625Z,8.47
2023-01-31T00:49:24.342Z,8.35
2023-01-31T00:51:51.006Z,8.55
2023-01-31T00:54:17.620Z,8.47
2023-01-31T00:56:44.819Z,8.30
2023-01-31T00:59:11.692Z,8.17
2023-01-31T01:01:38.368Z,8.08
2023-01-31T01:04:05.301Z,8.07
2023-01-31T01:06:33.927Z,8.11
2023-01-31T01:09:01.275Z,8.04
2023-01-31T01:11:29.398Z,7.92
2023-01-31T01:13:57.028Z,7.91
2023-01-31T01:16:42.393Z,7.97
2023-01-31T01:19:12.404Z,7.87
2023-01-31T01:21:40.766Z,7.70
2023-01-31T01:24:17.850Z,7.82
2023-01-31T01:26:44.771Z,7.72
2023-01-31T01:29:11.445Z,7.72
2023-01-31T01:31:39.182Z,7.65
2023-01-31T01:34:07.099Z,7.66
2023-01-31T01:36:35.079Z,7.61
2023-01-31T01:39:02.054Z,7.63
2023-01-31T01:41:28.770Z,7.55
2023-01-31T01:43:56.791Z,7.66
2023-01-31T01:46:26.125Z,7.59
2023-01-31T01:48:56.622Z,7.61
2023-01-31T01:51:23.854Z,7.46
2023-01-31T01:53:55.466Z,7.41
2023-01-31T01:56:25.679Z,7.50
2023-01-31T01:58:56.854Z,7.46
2023-01-31T02:01:24.855Z,7.57
2023-01-31T02:03:52.160Z,7.45
2023-01-31T02:06:19.160Z,7.54
2023-01-31T02:08:45.912Z,7.44
2023-01-31T02:11:17.727Z,7.27
2023-01-31T02:13:46.335Z,7.15
2023-01-31T02:16:14.568Z,7.14
2023-01-31T02:18:42.166Z,7.07
2023-01-31T02:21:27.600Z,7.13
2023-01-31T02:24:04.093Z,7.18
2023-01-31T02:26:40.454Z,7.15
2023-01-31T02:29:26.870Z,7.19
2023-01-31T02:31:56.320Z,7.07
2023-01-31T02:34:32.920Z,7.03
2023-01-31T02:37:17.929Z,7.20
2023-01-31T02:39:51.062Z,7.13
2023-01-31T02:42:40.959Z,7.18
2023-01-31T02:45:19.903Z,7.04
2023-01-31T02:47:46.963Z,6.90
2023-01-31T02:50:31.293Z,6.81
2023-01-31T02:53:21.446Z,6.94
2023-01-31T02:56:17.946Z,7.14
2023-01-31T02:58:53.846Z,7.16
2023-01-31T03:01:29.671Z,7.17
2023-01-31T03:04:09.972Z,7.20
2023-01-31T03:06:36.887Z,7.12
2023-01-31T03:09:22.295Z,7.05
2023-01-31T03:11:53.499Z,6.74
2023-01-31T03:14:20.578Z,6.74
2023-01-31T03:17:18.421Z,6.66
2023-01-31T03:19:49.677Z,6.49
2023-01-31T03:22:24.155Z,6.58
2023-01-31T03:24:52.149Z,6.61
2023-01-31T03:27:19.978Z,6.68
2023-01-31T03:29:54.489Z,6.69
2023-01-31T03:32:24.761Z,6.79
2023-01-31T03:34:52.092Z,6.71
2023-01-31T03:37:28.020Z,6.80
2023-01-31T03:40:05.887Z,6.64
2023-01-31T03:42:35.666Z,6.75
2023-01-31T03:45:05.872Z,6.68
2023-01-31T03:47:43.972Z,6.64
2023-01-31T03:50:18.930Z,6.65
2023-01-31T03:52:57.468Z,6.76
2023-01-31T03:55:37.072Z,6.82
2023-01-31T03:58:05.358Z,6.92
2023-01-31T04:00:35.666Z,6.88
2023-01-31T04:03:11.228Z,6.88
2023-01-31T04:05:38.165Z,6.83
2023-01-31T04:08:04.988Z,6.93
2023-01-31T04:10:33.584Z,6.67
2023-01-31T04:13:01.507Z,6.59
2023-01-31T04:15:28.222Z,6.55
2023-01-31T04:17:54.858Z,6.64
2023-01-31T04:20:21.504Z,6.73
2023-01-31T04:22:48.207Z,6.68
2023-01-31T04:25:14.875Z,6.58
2023-01-31T04:27:41.559Z,6.67
2023-01-31T04:30:08.544Z,6.66
2023-01-31T04:32:35.215Z,6.52
2023-01-31T04:35:02.590Z,6.38
2023-01-31T04:37:29.357Z,6.31
2023-01-31T04:39:55.969Z,6.35
2023-01-31T04:42:22.614Z,6.39
2023-01-31T04:44:49.235Z,6.29
2023-01-31T04:47:15.899Z,6.22
2023-01-31T04:49:44.168Z,6.27
2023-01-31T04:52:11.135Z,6.23
2023-01-31T04:54:37.888Z,6.23
2023-01-31T04:57:04.526Z,6.19
2023-01-31T04:59:31.199Z,6.20
2023-01-31T05:01:57.864Z,6.28
2023-01-31T05:04:26.303Z,6.32
2023-01-31T05:06:53.153Z,6.29
2023-01-31T05:09:20.466Z,6.32
2023-01-31T05:11:47.384Z,6.25
2023-01-31T05:14:14.948Z,6.45
2023-01-31T05:16:44.117Z,6.35
2023-01-31T05:19:10.719Z,6.27
2023-01-31T05:21:54.966Z,6.15
2023-01-31T05:24:22.355Z,6.18
2023-01-31T05:26:50.691Z,6.41
2023-01-31T05:29:17.858Z,6.44
2023-01-31T05:31:45.166Z,6.45
2023-01-31T05:34:15.245Z,6.60
2023-01-31T05:36:42.439Z,6.21
2023-01-31T05:39:09.187Z,6.26
2023-01-31T05:41:35.923Z,6.16
2023-01-31T05:44:02.781Z,6.10
2023-01-31T05:46:29.506Z,6.05
2023-01-31T06:07:20.479Z,6.66
2023-01-31T06:09:47.206Z,6.61
2023-01-31T06:12:15.027Z,6.33
2023-01-31T06:14:41.828Z,6.20
2023-01-31T06:17:08.624Z,6.13
2023-01-31T06:19:35.360Z,5.95
2023-01-31T06:22:02.318Z,5.96
2023-01-31T06:24:29.261Z,5.82
2023-01-31T06:26:56.008Z,5.78
2023-01-31T06:29:22.798Z,5.82
2023-01-31T06:31:49.714Z,5.77
2023-01-31T06:34:16.658Z,5.84
2023-01-31T06:36:43.530Z,5.77
2023-01-31T06:39:11.780Z,5.78
2023-01-31T06:41:38.626Z,5.86
2023-01-31T06:44:05.509Z,5.88
2023-01-31T06:46:32.995Z,5.94
2023-01-31T06:48:59.828Z,5.94
2023-01-31T06:51:26.558Z,6.07
2023-01-31T06:53:54.051Z,6.06
2023-01-31T06:56:21.085Z,6.17
2023-01-31T06:58:47.891Z,6.28
2023-01-31T07:01:15.526Z,6.34
2023-01-31T07:03:42.699Z,6.43
2023-01-31T07:06:10.881Z,6.49
2023-01-31T07:08:38.086Z,6.42
2023-01-31T07:11:05.234Z,6.39
2023-01-31T07:13:32.774Z,6.50
2023-01-31T07:15:59.589Z,6.50
2023-01-31T07:18:26.365Z,6.59
2023-01-31T07:20:53.130Z,6.51
2023-01-31T07:23:20.233Z,6.50
2023-01-31T07:25:47.073Z,6.34
2023-01-31T07:28:13.839Z,6.36
2023-01-31T07:30:43.953Z,6.32
2023-01-31T07:33:11.437Z,6.35
2023-01-31T07:35:38.184Z,6.37
2023-01-31T07:38:04.989Z,6.49
2023-01-31T07:40:32.094Z,6.60
2023-01-31T07:43:00.012Z,6.53
2023-01-31T07:45:27.464Z,6.51
2023-01-31T07:47:58.451Z,6.63
2023-01-31T07:50:27.167Z,6.63
2023-01-31T07:52:54.072Z,6.64
2023-01-31T07:55:21.280Z,6.63
2023-01-31T07:57:48.550Z,6.66
2023-01-31T08:00:34.144Z,6.68
2023-01-31T08:03:20.398Z,6.71
2023-01-31T08:05:47.887Z,7.00
2023-01-31T08:08:14.944Z,6.67
2023-01-31T08:10:41.790Z,6.74
2023-01-31T08:13:11.106Z,6.85
2023-01-31T08:15:37.959Z,6.95
2023-01-31T08:18:06.499Z,6.87
2023-01-31T08:20:37.862Z,6.95
2023-01-31T08:23:04.781Z,7.13
2023-01-31T08:25:32.246Z,7.10
2023-01-31T08:28:00.546Z,7.41
2023-01-31T08:30:28.446Z,7.50
2023-01-31T08:32:55.884Z,7.57
2023-01-31T08:35:23.008Z,7.58
2023-01-31T08:37:49.803Z,7.39
2023-01-31T08:40:16.680Z,7.29
2023-01-31T08:42:43.602Z,7.39
2023-01-31T08:45:10.836Z,7.29
2023-01-31T08:47:38.877Z,7.37
2023-01-31T08:50:13.172Z,7.41
2023-01-31T08:53:00.498Z,7.53
2023-01-31T08:55:29.186Z,7.47
2023-01-31T08:57:59.995Z,7.64
2023-01-31T09:00:27.949Z,7.67
2023-01-31T09:02:56.678Z,7.75
2023-01-31T09:05:25.199Z,7.89
2023-01-31T09:07:52.192Z,7.88
2023-01-31T09:10:20.563Z,7.97
2023-01-31T09:12:48.048Z,8.06
2023-01-31T09:15:14.949Z,8.14
2023-01-31T09:17:42.892Z,8.14
2023-01-31T09:20:10.341Z,8.18
2023-01-31T09:22:38.393Z,8.28
2023-01-31T09:25:06.043Z,8.34
2023-01-31T09:27:33.343Z,8.27
2023-01-31T09:30:00.125Z,8.24
2023-01-31T09:32:27.116Z,8.28
2023-01-31T09:34:53.897Z,8.40
2023-01-31T09:37:20.681Z,8.42
2023-01-31T09:39:47.395Z,8.49
2023-01-31T09:42:20.023Z,8.64
2023-01-31T09:45:04.399Z,8.76
2023-01-31T09:47:34.365Z,8.84
2023-01-31T09:50:12.839Z,9.18
2023-01-31T09:52:39.744Z,9.23
2023-01-31T09:55:08.508Z,9.29
2023-01-31T09:57:49.181Z,9.33
2023-01-31T10:00:52.088Z,9.36
2023-01-31T10:03:48.018Z,9.43
2023-01-31T10:06:36.320Z,9.56
2023-01-31T10:09:21.266Z,9.57
2023-01-31T10:11:54.799Z,9.54
2023-01-31T10:14:36.679Z,9.60
2023-01-31T10:17:18.682Z,9.75
2023-01-31T10:20:15.388Z,9.92
2023-01-31T10:23:00.604Z,10.07
2023-01-31T10:25:32.715Z,10.23
2023-01-31T10:28:14.700Z,10.14
2023-01-31T10:31:01.800Z,10.11
2023-01-31T10:33:35.422Z,10.29
2023-01-31T10:36:10.076Z,10.33
2023-01-31T10:38:54.289Z,10.32
2023-01-31T10:41:54.216Z,10.52
2023-01-31T10:44:32.593Z,10.56
2023-01-31T10:47:00.583Z,10.62
2023-01-31T10:49:29.281Z,10.66
2023-01-31T10:52:23.275Z,10.71
2023-01-31T10:54:59.483Z,10.83
2023-01-31T10:57:26.705Z,10.96
2023-01-31T10:59:55.160Z,11.11
2023-01-31T11:02:28.241Z,11.17
2023-01-31T11:04:57.798Z,11.23
2023-01-31T11:07:28.703Z,11.38
2023-01-31T11:09:55.679Z,11.46
2023-01-31T11:12:39.092Z,11.48
2023-01-31T11:15:18.999Z,11.75
2023-01-31T11:17:47.719Z,11.94
2023-01-31T11:20:21.567Z,11.82
2023-01-31T11:22:49.460Z,11.75
2023-01-31T11:25:22.172Z,11.88
2023-01-31T11:27:51.971Z,12.03
2023-01-31T11:30:21.315Z,11.85
2023-01-31T11:32:48.973Z,11.97
2023-01-31T11:35:15.629Z,12.08
2023-01-31T11:38:18.321Z,12.37
2023-01-31T11:40:45.064Z,12.42
2023-01-31T11:43:14.898Z,12.43
2023-01-31T11:45:46.893Z,12.40
2023-01-31T11:48:13.839Z,12.47
2023-01-31T11:50:50.466Z,12.53
2023-01-31T11:53:21.175Z,12.65
2023-01-31T11:55:50.089Z,12.62
2023-01-31T11:58:20.407Z,12.75
2023-01-31T12:01:06.331Z,12.86
2023-01-31T12:03:34.043Z,12.93
2023-01-31T12:06:03.800Z,13.06
2023-01-31T12:08:43.135Z,13.24
2023-01-31T12:11:30.315Z,13.21
2023-01-31T12:14:18.157Z,13.22
2023-01-31T12:16:46.893Z,13.32
2023-01-31T12:19:13.603Z,13.42
2023-01-31T12:22:02.897Z,13.47
2023-01-31T12:24:51.181Z,13.66
2023-01-31T12:27:45.120Z,13.39
2023-01-31T12:30:27.418Z,13.41
2023-01-31T12:33:03.622Z,13.38
2023-01-31T12:36:02.489Z,13.53
2023-01-31T12:39:04.922Z,13.42
2023-01-31T12:41:38.645Z,13.46
2023-01-31T12:44:22.789Z,13.72
2023-01-31T12:47:16.536Z,13.90
2023-01-31T12:49:52.398Z,14.14
2023-01-31T12:52:46.222Z,14.23
2023-01-31T12:55:19.747Z,14.38
2023-01-31T12:58:02.754Z,14.52
2023-01-31T13:00:43.350Z,14.53
2023-01-31T13:03:32.007Z,14.60
2023-01-31T13:06:23.520Z,14.61
2023-01-31T13:09:21.607Z,14.68
2023-01-31T13:12:09.823Z,14.72
2023-01-31T13:14:42.962Z,14.73
2023-01-31T13:17:17.279Z,14.74
2023-01-31T13:20:24.299Z,14.81
2023-01-31T13:22:58.210Z,14.75
2023-01-31T13:25:39.403Z,14.73
2023-01-31T13:28:18.769Z,14.72
2023-01-31T13:30:55.094Z,14.70
2023-01-31T13:33:28.064Z,14.57
2023-01-31T13:36:08.893Z,14.59
2023-01-31T13:38:44.425Z,14.54
2023-01-31T13:41:32.335Z,14.57
2023-01-31T13:44:01.795Z,14.44
2023-01-31T13:46:39.387Z,14.47
2023-01-31T13:49:15.103Z,14.43
2023-01-31T13:51:48.488Z,14.42
2023-01-31T13:54:33.991Z,14.47
2023-01-31T13:57:02.523Z,14.43
2023-01-31T13:59:35.914Z,14.50
2023-01-31T14:02:05.888Z,14.44
2023-01-31T14:04:35.583Z,14.48
2023-01-31T14:07:04.511Z,14.51
2023-01-31T14:09:31.380Z,14.45
2023-01-31T14:12:00.362Z,14.46
2023-01-31T14:14:45.093Z,14.48
2023-01-31T14:17:11.940Z,14.44
2023-01-31T14:19:45.891Z,14.36
2023-01-31T14:22:17.465Z,14.33
2023-01-31T14:24:47.108Z,14.39
2023-01-31T14:27:22.689Z,14.33
2023-01-31T14:29:53.073Z,14.34
2023-01-31T14:32:31.155Z,14.23
2023-01-31T14:35:00.354Z,14.17
2023-01-31T14:37:32.960Z,14.26
2023-01-31T14:40:25.177Z,14.24
2023-01-31T14:42:59.243Z,14.24
2023-01-31T14:45:36.958Z,14.29
2023-01-31T14:48:21.774Z,14.29
2023-01-31T14:51:01.667Z,14.26
2023-01-31T14:53:43.726Z,14.30
2023-01-31T14:56:32.930Z,14.24
2023-01-31T14:59:00.009Z,14.22
2023-01-31T15:01:35.375Z,14.21
2023-01-31T15:04:04.206Z,14.15
2023-01-31T15:06:41.033Z,14.19
2023-01-31T15:09:16.762Z,14.16
2023-01-31T15:11:46.555Z,14.11
2023-01-31T15:14:34.671Z,14.16
2023-01-31T15:17:35.515Z,14.07
2023-01-31T15:20:17.177Z,14.05
2023-01-31T15:22:45.372Z,14.05
2023-01-31T15:25:28.475Z,14.02
2023-01-31T15:27:57.650Z,13.97
2023-01-31T15:30:25.887Z,14.00
2023-01-31T15:32:58.326Z,13.91
2023-01-31T15:35:25.091Z,13.87
2023-01-31T15:38:30.039Z,13.86
2023-01-31T15:41:22.704Z,13.79
2023-01-31T15:43:55.184Z,13.74
2023-01-31T15:46:23.975Z,13.76
2023-01-31T15:48:51.490Z,13.76
2023-01-31T15:51:19.764Z,13.78
2023-01-31T15:53:47.721Z,13.77
2023-01-31T15:56:24.672Z,13.76
2023-01-31T15:58:54.660Z,13.80
2023-01-31T16:01:21.645Z,13.83
2023-01-31T16:03:52.269Z,13.83
2023-01-31T16:06:26.691Z,13.85
2023-01-31T16:09:00.822Z,13.79
2023-01-31T16:11:33.512Z,13.75
2023-01-31T16:14:04.170Z,13.76
2023-01-31T16:16:33.792Z,13.81
2023-01-31T16:19:01.779Z,13.79
2023-01-31T16:21:37.914Z,13.79
2023-01-31T16:24:18.947Z,13.75
2023-01-31T16:27:05.713Z,13.76
2023-01-31T16:29:43.566Z,13.77
2023-01-31T16:32:19.786Z,13.74
2023-01-31T16:34:56.842Z,13.75
2023-01-31T16:37:41.217Z,13.75
2023-01-31T16:40:25.588Z,13.75
2023-01-31T16:43:10.083Z,13.74
2023-01-31T16:45:40.616Z,13.72
2023-01-31T16:48:24.610Z,13.69
2023-01-31T16:50:57.292Z,13.63
2023-01-31T16:53:30.582Z,13.53
2023-01-31T16:56:16.569Z,13.53
2023-01-31T16:58:57.719Z,13.47
2023-01-31T17:01:34.929Z,13.42
2023-01-31T17:04:17.273Z,13.39
2023-01-31T17:06:46.568Z,13.34
2023-01-31T17:09:19.059Z,13.23
2023-01-31T17:11:48.475Z,13.21
2023-01-31T17:14:15.208Z,13.20
2023-01-31T17:16:42.012Z,13.14
2023-01-31T17:19:09.107Z,13.13
2023-01-31T17:21:41.054Z,13.09
2023-01-31T17:24:17.688Z,13.06
2023-01-31T17:26:45.202Z,13.04
2023-01-31T17:29:12.550Z,13.00
2023-01-31T17:31:39.476Z,13.01
2023-01-31T17:34:12.793Z,12.99
2023-01-31T17:36:39.695Z,12.98
2023-01-31T17:39:07.792Z,12.94
2023-01-31T17:41:34.884Z,12.91
2023-01-31T17:44:06.639Z,12.87
2023-01-31T17:46:35.174Z,12.88
2023-01-31T17:49:01.955Z,12.85
2023-01-31T17:51:28.744Z,12.83
2023-01-31T17:53:55.536Z,12.81
2023-01-31T17:56:22.308Z,12.81
2023-01-31T17:58:49.564Z,12.78
2023-01-31T18:01:16.550Z,12.77
2023-01-31T18:03:43.634Z,12.73
2023-01-31T18:06:11.195Z,12.72
2023-01-31T18:08:38.222Z,12.72
2023-01-31T18:11:15.092Z,12.69
2023-01-31T18:13:42.673Z,12.60
2023-01-31T18:16:18.381Z,12.63
2023-01-31T18:18:45.138Z,12.58
2023-01-31T18:21:15.640Z,12.60
2023-01-31T18:23:53.334Z,12.57
2023-01-31T18:26:21.675Z,12.54
2023-01-31T18:28:49.063Z,12.52
2023-01-31T18:31:17.698Z,12.46
2023-01-31T18:33:46.874Z,12.44
2023-01-31T18:36:21.448Z,12.42
2023-01-31T18:38:49.492Z,12.38
2023-01-31T18:41:19.138Z,12.29
2023-01-31T18:43:47.867Z,12.21
2023-01-31T18:46:16.936Z,12.20
2023-01-31T18:48:44.199Z,12.12
2023-01-31T18:51:13.188Z,12.06
2023-01-31T18:53:42.621Z,12.08
2023-01-31T18:56:14.959Z,12.07
2023-01-31T18:58:42.105Z,11.96
2023-01-31T19:01:20.887Z,11.87
2023-01-31T19:03:56.037Z,11.82
2023-01-31T19:06:27.487Z,11.83
2023-01-31T19:08:56.795Z,11.83
2023-01-31T19:11:26.792Z,11.76
2023-01-31T19:13:53.732Z,11.49
2023-01-31T19:16:26.859Z,11.62
2023-01-31T19:18:55.459Z,11.62
2023-01-31T19:21:28.434Z,11.59
2023-01-31T19:23:57.795Z,11.59
2023-01-31T19:26:25.008Z,11.62
2023-01-31T19:28:52.664Z,11.49
2023-01-31T19:31:22.357Z,11.56
2023-01-31T19:33:50.535Z,11.50
2023-01-31T19:36:20.101Z,11.30
2023-01-31T19:38:47.051Z,11.19
2023-01-31T19:41:19.428Z,11.28
2023-01-31T19:43:48.760Z,11.26
2023-01-31T19:46:15.923Z,11.15
2023-01-31T19:48:42.684Z,10.94
2023-01-31T19:51:12.322Z,10.76
2023-01-31T19:53:40.132Z,10.58
2023-01-31T19:56:07.580Z,10.50
2023-01-31T19:58:34.877Z,10.55
2023-01-31T20:01:04.180Z,10.52
2023-01-31T20:03:31.726Z,10.45
2023-01-31T20:06:19.766Z,10.46
2023-01-31T20:08:53.951Z,10.57
2023-01-31T20:11:21.242Z,10.44
2023-01-31T20:13:52.591Z,10.44
2023-01-31T20:16:20.205Z,10.33
2023-01-31T20:18:48.088Z,10.30
2023-01-31T20:21:17.170Z,10.42
2023-01-31T20:23:44.036Z,10.18
2023-01-31T20:26:15.383Z,10.17
2023-01-31T20:28:43.614Z,10.02
2023-01-31T20:31:12.693Z,9.97
2023-01-31T20:33:39.732Z,9.92
2023-01-31T20:36:07.069Z,9.94
2023-01-31T20:38:33.939Z,9.88
2023-01-31T20:41:00.829Z,9.87
2023-01-31T20:43:27.746Z,9.99
2023-01-31T20:46:02.431Z,9.99
2023-01-31T20:48:29.266Z,10.02
2023-01-31T20:50:57.596Z,9.97
2023-01-31T20:53:25.113Z,9.95
2023-01-31T20:56:01.139Z,9.93
2023-01-31T20:58:30.132Z,9.88
2023-01-31T21:00:57.638Z,9.86
2023-01-31T21:03:24.807Z,10.00
2023-01-31T21:05:52.157Z,10.14
2023-01-31T21:08:21.020Z,10.22
2023-01-31T21:10:52.853Z,10.17
2023-01-31T21:13:21.096Z,10.09
2023-01-31T21:15:52.010Z,10.03
2023-01-31T21:18:19.684Z,9.94
2023-01-31T21:20:47.424Z,10.14
2023-01-31T21:23:14.253Z,10.14
2023-01-31T21:25:41.047Z,10.10
2023-01-31T21:28:08.077Z,10.15
2023-01-31T21:30:34.991Z,10.09
2023-01-31T21:33:01.854Z,10.17
2023-01-31T21:35:28.719Z,10.26
2023-01-31T21:37:55.603Z,10.21
2023-01-31T21:40:23.232Z,10.24
2023-01-31T21:42:54.176Z,10.23
2023-01-31T21:45:40.069Z,10.03
2023-01-31T21:48:29.867Z,10.14
2023-01-31T21:50:57.562Z,10.05
2023-01-31T21:53:26.391Z,9.93
2023-01-31T21:56:06.045Z,10.01
2023-01-31T21:58:34.202Z,9.81
2023-01-31T22:01:06.241Z,9.92
2023-01-31T22:03:33.886Z,9.86
2023-01-31T22:06:03.274Z,9.67
2023-01-31T22:08:30.440Z,9.71
2023-01-31T22:11:02.226Z,9.57
2023-01-31T22:13:29.212Z,9.70
2023-01-31T22:16:08.649Z,9.64
2023-01-31T22:18:36.812Z,9.55
2023-01-31T22:21:10.140Z,9.55
2023-01-31T22:23:38.617Z,9.59
2023-01-31T22:26:11.575Z,9.56
2023-01-31T22:28:39.691Z,9.66
2023-01-31T22:31:08.280Z,9.69
2023-01-31T22:33:38.112Z,9.77
2023-01-31T22:36:06.611Z,9.80
2023-01-31T22:38:33.855Z,9.76
2023-01-31T22:41:03.818Z,9.84
2023-01-31T22:43:31.509Z,9.83
2023-01-31T22:45:59.549Z,9.84
2023-01-31T22:48:26.865Z,9.84
2023-01-31T22:51:13.798Z,9.81
2023-01-31T22:53:41.166Z,9.77
2023-01-31T22:56:18.205Z,9.63
2023-01-31T22:58:45.822Z,9.58
2023-01-31T23:01:16.508Z,9.60
2023-01-31T23:03:43.582Z,9.57
2023-01-31T23:06:11.376Z,9.52
2023-01-31T23:08:38.693Z,9.32
2023-01-31T23:11:09.911Z,9.38
2023-01-31T23:13:37.599Z,9.24
2023-01-31T23:16:05.871Z,9.22
2023-01-31T23:18:33.381Z,9.22
2023-01-31T23:21:19.387Z,9.08
2023-01-31T23:23:46.434Z,8.90
2023-01-31T23:26:13.469Z,8.88
2023-01-31T23:28:40.946Z,8.73
2023-01-31T23:31:08.128Z,8.58
2023-01-31T23:33:35.199Z,8.66
2023-01-31T23:36:02.712Z,8.46
2023-01-31T23:38:29.595Z,8.39
2023-01-31T23:40:56.411Z,8.27
2023-01-31T23:43:23.428Z,8.13
2023-01-31T23:45:50.364Z,8.15
2023-01-31T23:48:17.620Z,8.21
2023-01-31T23:50:44.539Z,8.20
2023-01-31T23:53:11.316Z,8.25
2023-01-31T23:55:38.075Z,8.21
2023-01-31T23:58:05.333Z,8.00
